This is the latest recevied weather packets stored in our database for station/object JA6XZK-13. If no packets are shown the sender has not sent any weather packets the latest 10 day(s).
| Time | Temp. | Humidity | Pressure | Rain* | Wind** | Luminosity | Snow |
|---|---|---|---|---|---|---|---|
| 1777561086 | 16.11° C | 79% | 1007 hPa | - | - | - | - |
| 1777560486 | 16.11° C | 79% | 1007.4 hPa | - | - | - | - |
| 1777559887 | 16.11° C | 79% | 1007.6 hPa | - | - | - | - |
| 1777559287 | 16.67° C | 78% | 1007.9 hPa | - | - | - | - |
| 1777556888 | 17.22° C | 73% | 1009.5 hPa | - | - | - | - |
| 1777555694 | 17.22° C | 71% | 1009.2 hPa | - | - | - | - |
| 1777553120 | 17.22° C | 69% | 1008.8 hPa | - | - | - | - |
| 1777552390 | 17.22° C | 69% | 1009 hPa | - | - | - | - |
| 1777550560 | 17.22° C | 69% | 1009.8 hPa | - | - | - | - |
| 1777466289 | 17.78° C | 49% | 1016.2 hPa | - | - | - | - |
| 1777464488 | 18.33° C | 49% | 1016.1 hPa | - | - | - | - |
| 1777462687 | 18.33° C | 47% | 1015.9 hPa | - | - | - | - |
| 1777460886 | 18.89° C | 46% | 1015.6 hPa | - | - | - | - |
| 1777459085 | 18.89° C | 47% | 1015.2 hPa | - | - | - | - |
| 1777457284 | 19.44° C | 48% | 1014.9 hPa | - | - | - | - |
| 1777455483 | 19.44° C | 48% | 1014.7 hPa | - | - | - | - |
| 1777453682 | 19.44° C | 48% | 1014.3 hPa | - | - | - | - |
| 1777451881 | 20° C | 48% | 1014.5 hPa | - | - | - | - |
| 1777450080 | 20° C | 48% | 1014.2 hPa | - | - | - | - |
| 1777448278 | 20° C | 48% | 1013.8 hPa | - | - | - | - |
| 1777446477 | 20° C | 47% | 1013.6 hPa | - | - | - | - |
| 1777444677 | 20.56° C | 47% | 1013.4 hPa | - | - | - | - |
| 1777442875 | 20.56° C | 46% | 1013.3 hPa | - | - | - | - |
| 1777441074 | 21.11° C | 46% | 1013.4 hPa | - | - | - | - |
| 1777439273 | 21.67° C | 45% | 1013.5 hPa | - | - | - | - |
* Rain since midnight (hover to see other rain measurements)
** Current wind speed in m/s (hover to see current wind gust speed)